Time;durP1;ratioP1;P1;durP2;ratioP2;P2;SDS_P1;SDS_P2;PMS_P1;PMS_P2;Temp;Humidity;BMP_temperature;BMP_pressure;BME280_temperature;BME280_humidity;BME280_pressure;Samples;Min_cycle;Max_cycle;Signal;HPM_P1;HPM_P2
2021/12/22 00:01:47;;;;;;;18.05;11.93;;;-3.40;99.90;;;;;;5014870;28;20261;-79
2021/12/22 00:04:16;;;;;;;20.80;12.98;;;-3.40;99.90;;;;;;5009580;28;20203;-78
2021/12/22 00:06:42;;;;;;;23.05;14.80;;;-3.40;99.90;;;;;;5013560;28;20290;-79
2021/12/22 00:09:12;;;;;;;19.38;11.85;;;-3.40;99.90;;;;;;5013832;28;20290;-78
2021/12/22 00:11:39;;;;;;;16.60;11.02;;;-3.40;99.90;;;;;;5010423;28;20233;-79
2021/12/22 00:14:09;;;;;;;20.80;12.70;;;-3.40;99.90;;;;;;5002418;28;20223;-78
2021/12/22 00:16:36;;;;;;;15.85;11.75;;;-3.50;99.90;;;;;;5015855;28;20206;-79
2021/12/22 00:19:08;;;;;;;15.35;10.25;;;-3.40;99.90;;;;;;5012777;28;20230;-79
2021/12/22 00:21:36;;;;;;;20.90;12.40;;;-3.40;99.90;;;;;;4998412;28;20234;-79
2021/12/22 00:24:07;;;;;;;15.48;11.13;;;-3.40;99.90;;;;;;4999634;28;20943;-79
2021/12/22 00:26:33;;;;;;;17.60;10.65;;;-3.40;99.90;;;;;;5006318;28;20281;-79
2021/12/22 00:29:08;;;;;;;20.27;12.35;;;-3.40;99.90;;;;;;5003568;28;20199;-80
2021/12/22 00:31:43;;;;;;;20.10;11.15;;;-3.40;99.90;;;;;;5004761;28;20217;-76
2021/12/22 00:34:15;;;;;;;26.67;12.70;;;-3.40;99.90;;;;;;5012528;28;20230;-80
2021/12/22 00:36:44;;;;;;;16.05;11.07;;;-3.40;99.90;;;;;;5007853;28;20204;-78
2021/12/22 00:39:11;;;;;;;18.05;11.70;;;-3.40;99.90;;;;;;5007193;28;20301;-79
2021/12/22 00:41:38;;;;;;;14.40;10.05;;;-3.50;99.90;;;;;;5005465;28;20219;-78
2021/12/22 00:44:06;;;;;;;17.70;11.68;;;-3.40;99.90;;;;;;5006562;28;20231;-79
2021/12/22 00:46:33;;;;;;;19.88;11.05;;;-3.40;99.90;;;;;;5002999;28;20207;-79
2021/12/22 00:48:59;;;;;;;20.23;11.77;;;-3.40;99.90;;;;;;5005518;28;20564;-79
2021/12/22 00:51:26;;;;;;;17.00;11.20;;;-3.40;99.90;;;;;;5004632;28;20198;-78
2021/12/22 00:53:54;;;;;;;22.13;13.85;;;-3.40;99.90;;;;;;5001368;28;20230;-79
2021/12/22 00:56:21;;;;;;;18.33;12.35;;;-3.50;99.90;;;;;;5012508;28;20211;-79
2021/12/22 00:58:48;;;;;;;19.90;12.88;;;-3.50;99.90;;;;;;5015939;28;20223;-79
2021/12/22 01:01:15;;;;;;;19.83;11.48;;;-3.50;99.90;;;;;;5016180;28;20209;-78
2021/12/22 01:03:41;;;;;;;25.23;14.10;;;-3.40;99.90;;;;;;5009786;28;20225;-79
2021/12/22 01:06:08;;;;;;;19.02;12.75;;;-3.40;99.90;;;;;;5016406;28;20278;-79
2021/12/22 01:08:35;;;;;;;18.80;12.65;;;-3.40;99.90;;;;;;5003198;28;20217;-80
2021/12/22 01:11:05;;;;;;;17.63;13.02;;;-3.50;99.90;;;;;;5000055;28;20207;-79
2021/12/22 01:13:32;;;;;;;17.27;10.82;;;-3.50;99.90;;;;;;5015332;28;20641;-79
2021/12/22 01:15:59;;;;;;;22.35;12.63;;;-3.50;99.90;;;;;;5016493;28;20540;-80
2021/12/22 01:18:31;;;;;;;18.77;12.02;;;-3.50;99.90;;;;;;5016293;28;20222;-79
2021/12/22 01:21:06;;;;;;;18.20;11.65;;;-3.50;99.90;;;;;;5016286;28;20310;-79
2021/12/22 01:23:39;;;;;;;23.10;12.05;;;-3.50;99.90;;;;;;5008919;28;20223;-79
2021/12/22 01:26:08;;;;;;;17.30;10.82;;;-3.40;99.90;;;;;;4996571;28;20195;-79
2021/12/22 01:28:41;;;;;;;14.88;11.50;;;-3.40;99.90;;;;;;4996917;28;20192;-79
2021/12/22 01:31:13;;;;;;;20.45;11.52;;;-3.40;99.90;;;;;;4997822;28;20207;-80
2021/12/22 01:33:40;;;;;;;19.88;11.05;;;-3.40;99.90;;;;;;5004176;28;20242;-79
2021/12/22 01:36:07;;;;;;;16.80;10.90;;;-3.40;99.90;;;;;;5006194;28;20213;-79
2021/12/22 01:38:34;;;;;;;17.25;11.30;;;-3.40;99.90;;;;;;4997641;28;20227;-79
2021/12/22 01:41:01;;;;;;;18.73;12.25;;;-3.50;99.90;;;;;;5004660;28;20219;-79
2021/12/22 01:43:29;;;;;;;13.88;9.77;;;-3.50;99.90;;;;;;5009061;28;20740;-79
2021/12/22 01:46:20;;;;;;;19.05;11.85;;;-3.50;99.90;;;;;;5003598;28;20195;-79
2021/12/22 01:51:39;;;;;;;15.95;10.18;;;-3.60;99.90;;;;;;5000795;28;20311;-79
2021/12/22 01:54:10;;;;;;;16.70;10.32;;;-3.60;99.90;;;;;;5001151;28;20219;-80
2021/12/22 01:56:37;;;;;;;17.38;11.90;;;-3.60;99.90;;;;;;5015710;28;20207;-80
2021/12/22 01:59:08;;;;;;;15.70;10.73;;;-3.60;99.90;;;;;;5013921;28;20223;-79
2021/12/22 02:01:36;;;;;;;14.45;9.98;;;-3.60;99.90;;;;;;5002752;28;20560;-79
2021/12/22 02:04:06;;;;;;;14.98;10.15;;;-3.60;99.90;;;;;;4999388;28;20231;-79
2021/12/22 02:06:33;;;;;;;14.98;10.02;;;-3.60;99.90;;;;;;5006906;28;20223;-80
2021/12/22 02:09:00;;;;;;;16.08;11.43;;;-3.60;99.90;;;;;;4998576;28;20210;-77
2021/12/22 02:11:26;;;;;;;19.88;11.82;;;-3.60;99.90;;;;;;5013342;28;20209;-78
2021/12/22 02:13:58;;;;;;;16.10;9.70;;;-3.70;99.90;;;;;;5011966;28;20226;-78
2021/12/22 02:16:30;;;;;;;15.25;9.75;;;-3.70;99.90;;;;;;5013833;28;20206;-77
2021/12/22 02:18:59;;;;;;;16.20;9.95;;;-3.70;99.90;;;;;;5006717;28;20592;-77
2021/12/22 02:21:31;;;;;;;16.48;10.23;;;-3.70;99.90;;;;;;5001210;28;20207;-77
2021/12/22 02:23:59;;;;;;;17.10;10.60;;;-3.70;99.90;;;;;;5008676;28;20302;-77
2021/12/22 02:26:34;;;;;;;14.57;10.70;;;-3.60;99.90;;;;;;5005135;28;20379;-78
2021/12/22 02:29:04;;;;;;;21.58;13.77;;;-3.70;99.90;;;;;;5012424;28;20224;-77
2021/12/22 02:31:37;;;;;;;16.20;10.65;;;-3.70;99.90;;;;;;5013813;28;20203;-77
2021/12/22 02:34:05;;;;;;;14.45;10.57;;;-3.60;99.90;;;;;;4995778;28;20234;-78
2021/12/22 02:36:39;;;;;;;17.42;10.15;;;-3.60;99.90;;;;;;4994199;28;20298;-77
2021/12/22 02:39:07;;;;;;;21.27;11.45;;;-3.70;99.90;;;;;;5008449;28;20322;-78
2021/12/22 02:41:37;;;;;;;15.98;10.65;;;-3.70;99.90;;;;;;5013792;28;20214;-78
2021/12/22 02:44:07;;;;;;;17.73;10.25;;;-3.70;99.90;;;;;;4999449;28;20226;-77
2021/12/22 02:46:37;;;;;;;19.67;11.20;;;-3.70;99.90;;;;;;5012065;28;20207;-78
2021/12/22 02:49:06;;;;;;;16.85;10.70;;;-3.70;99.90;;;;;;4996189;28;20295;-78
2021/12/22 02:51:36;;;;;;;15.70;9.95;;;-3.70;99.90;;;;;;5003799;28;20209;-77
2021/12/22 02:54:09;;;;;;;15.50;10.70;;;-3.70;99.90;;;;;;4994792;28;20700;-78
2021/12/22 02:56:50;;;;;;;16.90;11.02;;;-3.70;99.90;;;;;;5007734;28;20667;-77
2021/12/22 02:59:37;;;;;;;18.52;11.15;;;-3.70;99.90;;;;;;5013638;28;20215;-78
2021/12/22 03:02:20;;;;;;;18.65;12.40;;;-3.70;99.90;;;;;;5013170;28;20725;-78
2021/12/22 03:04:53;;;;;;;21.48;10.95;;;-3.70;99.90;;;;;;4998593;28;20278;-78
2021/12/22 03:07:24;;;;;;;17.33;11.48;;;-3.70;99.90;;;;;;5014331;28;20203;-78
2021/12/22 03:10:00;;;;;;;14.80;9.68;;;-3.70;99.90;;;;;;5012280;28;20199;-78
2021/12/22 03:12:31;;;;;;;16.75;10.43;;;-3.60;99.90;;;;;;5006426;28;20284;-78
2021/12/22 03:14:57;;;;;;;16.35;10.48;;;-3.60;99.90;;;;;;5012176;28;20210;-78
2021/12/22 03:17:24;;;;;;;15.75;11.32;;;-3.70;99.90;;;;;;4994936;28;20215;-77
2021/12/22 03:19:51;;;;;;;16.83;11.50;;;-3.70;99.90;;;;;;5012825;28;20237;-78
2021/12/22 03:22:20;;;;;;;17.77;10.93;;;-3.60;99.90;;;;;;5009515;28;20270;-78
2021/12/22 03:24:50;;;;;;;15.68;9.90;;;-3.60;99.90;;;;;;4998130;28;20235;-77
2021/12/22 03:27:17;;;;;;;18.17;11.20;;;-3.60;99.90;;;;;;5007231;28;20210;-77
2021/12/22 03:29:44;;;;;;;17.30;10.57;;;-3.70;99.90;;;;;;5012440;28;20581;-78
2021/12/22 03:32:12;;;;;;;20.15;11.80;;;-3.80;99.90;;;;;;5006596;28;20229;-78
2021/12/22 03:34:39;;;;;;;17.15;11.52;;;-3.80;99.90;;;;;;5000795;28;20308;-78
2021/12/22 03:37:07;;;;;;;20.83;11.27;;;-3.90;99.90;;;;;;4994631;28;20225;-77
2021/12/22 03:39:34;;;;;;;18.42;11.93;;;-3.80;99.90;;;;;;4997179;28;20314;-78
2021/12/22 03:42:03;;;;;;;17.27;10.43;;;-3.80;99.90;;;;;;5013971;28;20654;-78
2021/12/22 03:44:30;;;;;;;16.27;12.13;;;-3.80;99.90;;;;;;5003914;28;20672;-77
2021/12/22 03:46:59;;;;;;;19.00;11.90;;;-3.80;99.90;;;;;;5002508;28;20203;-78
2021/12/22 03:49:27;;;;;;;20.40;12.18;;;-3.80;99.90;;;;;;5006977;28;20672;-77
2021/12/22 03:51:54;;;;;;;16.13;11.15;;;-3.80;99.90;;;;;;5003075;28;20673;-77
2021/12/22 03:54:21;;;;;;;16.90;11.25;;;-3.80;99.90;;;;;;4998024;28;20203;-78
2021/12/22 03:56:49;;;;;;;19.90;11.70;;;-3.80;99.90;;;;;;5000630;28;20199;-78
2021/12/22 03:59:18;;;;;;;21.58;13.63;;;-3.80;99.90;;;;;;5017732;28;20261;-77
2021/12/22 04:01:46;;;;;;;18.58;11.85;;;-3.80;99.90;;;;;;5014547;28;20281;-78
2021/12/22 04:04:15;;;;;;;19.85;12.73;;;-3.80;99.90;;;;;;4999397;28;20219;-78
2021/12/22 04:06:44;;;;;;;24.08;13.82;;;-3.80;99.90;;;;;;5000416;28;20804;-77
2021/12/22 04:09:11;;;;;;;17.80;11.20;;;-3.80;99.90;;;;;;5009922;28;20199;-77
2021/12/22 04:11:38;;;;;;;19.05;12.23;;;-3.80;99.90;;;;;;5000412;28;20201;-78
2021/12/22 04:14:05;;;;;;;22.83;12.98;;;-3.80;99.90;;;;;;4998004;28;20615;-78
2021/12/22 04:16:33;;;;;;;17.45;11.65;;;-3.80;99.90;;;;;;4998567;28;20211;-78
2021/12/22 04:19:00;;;;;;;17.98;11.85;;;-3.70;99.90;;;;;;5009423;28;20211;-78
2021/12/22 04:21:27;;;;;;;21.10;11.50;;;-3.70;99.90;;;;;;5015696;28;20307;-78
2021/12/22 04:23:54;;;;;;;20.73;12.75;;;-3.70;99.90;;;;;;4997598;28;20228;-77
2021/12/22 04:26:21;;;;;;;19.65;12.82;;;-3.70;99.90;;;;;;5004862;28;20204;-77
2021/12/22 04:28:48;;;;;;;20.27;12.10;;;-3.80;99.90;;;;;;5012802;28;20693;-78
2021/12/22 04:31:15;;;;;;;23.05;12.48;;;-3.70;99.90;;;;;;5010140;28;20504;-77
2021/12/22 04:33:43;;;;;;;23.73;12.32;;;-3.80;99.90;;;;;;5001434;28;20226;-78
2021/12/22 04:36:10;;;;;;;20.00;12.07;;;-3.80;99.90;;;;;;5007902;28;20230;-78
2021/12/22 04:38:37;;;;;;;17.13;12.52;;;-3.80;99.90;;;;;;5016463;28;20205;-78
2021/12/22 04:41:03;;;;;;;25.38;13.15;;;-3.80;99.90;;;;;;5000953;28;20709;-78
2021/12/22 04:43:30;;;;;;;21.48;12.60;;;-3.80;99.90;;;;;;5000943;28;20227;-78
2021/12/22 04:45:57;;;;;;;23.40;12.10;;;-3.90;99.90;;;;;;5008502;28;20270;-79
2021/12/22 04:48:24;;;;;;;21.33;12.70;;;-3.90;99.90;;;;;;5004659;28;20210;-77
2021/12/22 04:50:52;;;;;;;18.48;12.02;;;-4.00;99.90;;;;;;4996783;28;20668;-77
2021/12/22 04:53:23;;;;;;;18.92;10.77;;;-3.90;99.90;;;;;;5016411;28;20612;-78
2021/12/22 04:55:50;;;;;;;18.83;12.25;;;-3.90;99.90;;;;;;5010941;28;20209;-77
2021/12/22 04:58:16;;;;;;;23.30;12.57;;;-4.00;99.90;;;;;;5016270;28;20213;-77
2021/12/22 05:00:44;;;;;;;26.45;11.93;;;-4.00;99.90;;;;;;5019723;28;20230;-77
2021/12/22 05:03:11;;;;;;;22.02;13.07;;;-4.00;99.90;;;;;;5022375;28;20229;-78
2021/12/22 05:05:38;;;;;;;21.33;11.75;;;-4.10;99.90;;;;;;5005284;28;20199;-77
2021/12/22 05:08:06;;;;;;;35.25;13.07;;;-4.00;99.90;;;;;;5021722;28;20210;-79
2021/12/22 05:10:33;;;;;;;19.88;12.02;;;-4.10;99.90;;;;;;5021747;28;20198;-78
2021/12/22 05:13:00;;;;;;;19.05;11.10;;;-4.10;99.90;;;;;;5027015;28;20218;-78
2021/12/22 05:15:35;;;;;;;18.25;12.02;;;-4.10;99.90;;;;;;5013959;28;20690;-78
2021/12/22 05:20:43;;;;;;;18.67;11.75;;;-4.10;99.90;;;;;;5002830;28;20266;-79
2021/12/22 05:23:11;;;;;;;25.77;12.73;;;-4.20;99.90;;;;;;5002310;28;20711;-78
2021/12/22 05:25:38;;;;;;;17.42;11.75;;;-4.10;99.90;;;;;;5015811;28;20210;-78
2021/12/22 05:28:05;;;;;;;26.38;11.98;;;-4.20;99.90;;;;;;5018238;28;20210;-78
2021/12/22 05:30:32;;;;;;;25.67;12.50;;;-4.20;99.90;;;;;;5014567;28;20686;-78
2021/12/22 05:32:59;;;;;;;24.90;13.45;;;-4.10;99.90;;;;;;5010644;28;20223;-77
2021/12/22 05:35:25;;;;;;;18.83;12.05;;;-4.20;99.90;;;;;;5015563;28;20209;-78
2021/12/22 05:37:53;;;;;;;22.85;11.77;;;-4.20;99.90;;;;;;5023454;28;20199;-79
2021/12/22 05:40:21;;;;;;;21.50;11.35;;;-4.20;99.90;;;;;;5010445;28;20254;-78
2021/12/22 05:42:48;;;;;;;17.35;10.30;;;-4.10;99.90;;;;;;4996252;28;20231;-79
2021/12/22 05:45:15;;;;;;;18.33;10.90;;;-4.10;99.90;;;;;;5008788;28;20210;-83
2021/12/22 05:47:42;;;;;;;20.17;11.18;;;-4.10;99.90;;;;;;5003781;28;20207;-83
2021/12/22 05:50:09;;;;;;;19.00;11.52;;;-4.10;99.90;;;;;;5015546;28;20209;-82
2021/12/22 05:52:36;;;;;;;14.13;8.52;;;-4.10;99.90;;;;;;5014683;28;20857;-82
2021/12/22 05:55:04;;;;;;;23.23;13.50;;;-2.70;99.90;;;;;;5020879;28;20205;-83
2021/12/22 05:57:32;;;;;;;30.83;18.45;;;2.30;99.90;;;;;;5008093;28;20209;-82
2021/12/22 05:59:59;;;;;;;31.05;18.25;;;0.50;99.90;;;;;;5020112;28;20233;-81
2021/12/22 06:02:26;;;;;;;29.80;16.85;;;-0.60;99.90;;;;;;5018852;28;20283;-82
2021/12/22 06:04:53;;;;;;;30.60;17.48;;;-1.30;99.90;;;;;;5009925;28;20203;-82
2021/12/22 06:07:20;;;;;;;20.15;14.00;;;-1.80;99.90;;;;;;5013568;28;20235;-82
2021/12/22 06:09:47;;;;;;;21.20;14.38;;;-2.10;99.90;;;;;;5005785;28;20238;-82
2021/12/22 06:12:14;;;;;;;32.95;14.43;;;-2.50;99.90;;;;;;5009059;28;20660;-82
2021/12/22 06:14:42;;;;;;;26.42;12.88;;;-2.70;99.90;;;;;;5002827;28;20204;-83
2021/12/22 06:17:09;;;;;;;20.17;11.82;;;-3.00;99.90;;;;;;5000396;28;20306;-83
2021/12/22 06:19:36;;;;;;;25.17;13.95;;;-3.30;99.90;;;;;;5016067;28;20227;-82
2021/12/22 06:22:03;;;;;;;22.75;12.65;;;-3.40;99.90;;;;;;5005906;28;20199;-81
2021/12/22 06:24:30;;;;;;;28.95;13.15;;;-3.50;99.90;;;;;;5019423;28;20214;-81
2021/12/22 06:26:57;;;;;;;21.25;11.43;;;-3.60;99.90;;;;;;5013499;28;20212;-81
2021/12/22 06:29:25;;;;;;;23.02;11.13;;;-3.60;99.90;;;;;;5008061;28;20195;-81
2021/12/22 06:31:53;;;;;;;18.25;11.27;;;-3.60;99.90;;;;;;5018936;28;20683;-81
2021/12/22 06:34:20;;;;;;;18.13;10.02;;;-3.70;99.90;;;;;;5019946;28;20220;-82
2021/12/22 06:36:47;;;;;;;23.63;11.65;;;-3.80;99.90;;;;;;5019793;28;20209;-82
2021/12/22 06:39:15;;;;;;;23.20;12.82;;;-3.80;99.90;;;;;;5018263;28;20203;-81
2021/12/22 06:41:42;;;;;;;30.58;13.10;;;-3.80;99.90;;;;;;5019168;28;20575;-81
2021/12/22 06:44:09;;;;;;;27.92;12.55;;;-3.90;99.90;;;;;;5005892;28;20231;-82
2021/12/22 06:46:36;;;;;;;22.73;11.48;;;-3.80;99.90;;;;;;4999982;28;20211;-81
2021/12/22 06:49:04;;;;;;;18.40;9.98;;;-3.80;99.90;;;;;;5009871;28;20209;-82
2021/12/22 06:51:31;;;;;;;20.45;12.23;;;-3.80;99.90;;;;;;5006609;28;20199;-82
2021/12/22 06:53:57;;;;;;;17.85;11.85;;;-3.80;99.90;;;;;;5000549;28;20233;-82
2021/12/22 06:56:24;;;;;;;19.25;10.63;;;-3.80;99.90;;;;;;4999780;28;20203;-81
2021/12/22 06:58:52;;;;;;;18.45;10.90;;;-3.80;99.90;;;;;;5019479;28;20205;-81
2021/12/22 07:01:20;;;;;;;15.50;10.50;;;-3.80;99.90;;;;;;5018840;28;20226;-82
2021/12/22 07:03:47;;;;;;;20.42;10.48;;;-3.90;99.90;;;;;;5003002;28;20232;-82
2021/12/22 07:06:16;;;;;;;24.95;11.95;;;-3.90;99.90;;;;;;5010737;28;20211;-80
2021/12/22 07:08:44;;;;;;;19.88;11.15;;;-3.80;99.90;;;;;;5028596;28;20274;-81
2021/12/22 07:11:11;;;;;;;18.70;10.98;;;-3.80;99.90;;;;;;5018692;28;20207;-82
2021/12/22 07:13:38;;;;;;;20.08;11.10;;;-3.90;99.90;;;;;;5009618;28;20243;-81
2021/12/22 07:16:05;;;;;;;13.45;9.25;;;-3.90;99.90;;;;;;5017820;28;20585;-82
2021/12/22 07:18:32;;;;;;;19.90;10.15;;;-3.80;99.90;;;;;;5018699;28;20205;-81
2021/12/22 07:20:59;;;;;;;17.75;9.85;;;-3.90;99.90;;;;;;5000956;28;20225;-82
2021/12/22 07:23:28;;;;;;;19.38;11.68;;;-3.80;99.90;;;;;;5008348;28;20223;-81
2021/12/22 07:25:55;;;;;;;15.57;10.25;;;-3.90;99.90;;;;;;5016163;28;20209;-82
2021/12/22 07:28:22;;;;;;;17.75;11.80;;;-3.80;99.90;;;;;;5020001;28;20202;-81
2021/12/22 07:30:48;;;;;;;20.15;9.77;;;-3.90;99.90;;;;;;5026217;28;20205;-81
2021/12/22 07:33:15;;;;;;;16.88;10.43;;;-3.90;99.90;;;;;;5018264;28;20290;-81
2021/12/22 07:35:47;;;;;;;15.68;9.60;;;-3.90;99.90;;;;;;5013642;28;20207;-82
2021/12/22 07:38:26;;;;;;;15.95;9.88;;;-3.90;99.90;;;;;;5027529;28;20272;-82
2021/12/22 07:40:56;;;;;;;19.55;10.30;;;-3.90;99.90;;;;;;5011151;28;20250;-82
2021/12/22 07:43:23;;;;;;;16.75;9.48;;;-3.90;99.90;;;;;;5011401;28;20223;-82
2021/12/22 07:45:50;;;;;;;17.80;10.90;;;-3.90;99.90;;;;;;5020330;28;20202;-81
2021/12/22 07:48:17;;;;;;;19.40;10.70;;;-3.90;99.90;;;;;;5019407;28;20270;-82
2021/12/22 07:50:44;;;;;;;21.55;10.45;;;-3.90;99.90;;;;;;5017359;28;20198;-81
2021/12/22 07:53:11;;;;;;;14.70;10.32;;;-3.80;99.90;;;;;;5011927;28;20231;-82
2021/12/22 07:55:38;;;;;;;14.48;9.70;;;-3.70;99.90;;;;;;5008073;28;20751;-80
2021/12/22 07:58:07;;;;;;;21.85;11.48;;;-3.70;99.90;;;;;;5019674;28;20583;-81
2021/12/22 08:00:34;;;;;;;16.85;10.40;;;-3.60;99.90;;;;;;5008492;28;20292;-81
2021/12/22 08:03:01;;;;;;;16.60;11.35;;;-3.60;99.90;;;;;;5016970;28;20246;-81
2021/12/22 08:05:28;;;;;;;23.08;10.63;;;-3.50;99.90;;;;;;5009198;28;20206;-81
2021/12/22 08:07:56;;;;;;;18.98;9.45;;;-3.50;99.90;;;;;;5021133;28;20202;-82
2021/12/22 08:10:23;;;;;;;20.45;10.75;;;-3.40;99.90;;;;;;5018432;28;20246;-81
2021/12/22 08:12:50;;;;;;;20.83;10.95;;;-3.40;99.90;;;;;;5015402;28;20222;-81
2021/12/22 08:15:18;;;;;;;22.00;10.98;;;-3.30;99.90;;;;;;5014911;28;20225;-82
2021/12/22 08:17:45;;;;;;;14.35;8.52;;;-3.20;99.90;;;;;;5015998;28;20583;-81
2021/12/22 08:20:13;;;;;;;15.40;9.20;;;-3.20;99.90;;;;;;5019054;28;20226;-82
2021/12/22 08:22:40;;;;;;;18.95;10.40;;;-3.10;99.90;;;;;;5019057;28;20319;-82
2021/12/22 08:25:07;;;;;;;19.58;14.40;;;-3.10;99.90;;;;;;5016664;28;20289;-80
2021/12/22 08:27:34;;;;;;;17.02;10.10;;;-3.00;99.90;;;;;;5013667;28;20668;-82
2021/12/22 08:30:01;;;;;;;17.48;9.93;;;-2.90;99.90;;;;;;5021452;28;20218;-81
2021/12/22 08:32:29;;;;;;;19.38;11.07;;;-2.80;99.90;;;;;;5014721;28;20225;-81
2021/12/22 08:34:57;;;;;;;22.58;12.80;;;-2.80;99.90;;;;;;5008020;28;20199;-82
2021/12/22 08:40:10;;;;;;;18.27;10.50;;;-2.70;99.90;;;;;;5022880;28;20665;-81
2021/12/22 08:42:38;;;;;;;17.75;9.73;;;-2.50;99.90;;;;;;5017056;28;20323;-81
2021/12/22 08:45:06;;;;;;;17.05;9.98;;;-2.50;99.90;;;;;;5027242;28;20207;-83
2021/12/22 08:47:34;;;;;;;22.15;10.05;;;-2.40;99.90;;;;;;5019244;28;20203;-81
2021/12/22 08:50:01;;;;;;;20.42;11.30;;;-2.30;99.90;;;;;;5018090;28;20263;-80
2021/12/22 08:52:28;;;;;;;21.17;10.90;;;-2.20;99.90;;;;;;5018181;28;20245;-81
2021/12/22 08:54:54;;;;;;;17.42;11.63;;;-2.20;99.90;;;;;;5018889;28;20290;-81
2021/12/22 08:57:22;;;;;;;27.85;11.10;;;-2.10;99.90;;;;;;5015747;28;20199;-82
2021/12/22 08:59:49;;;;;;;19.88;11.52;;;-2.10;99.90;;;;;;5014246;28;20199;-83
2021/12/22 09:02:16;;;;;;;16.13;10.73;;;-2.00;99.90;;;;;;5029256;22;20237;-82
2021/12/22 09:04:44;;;;;;;14.82;9.50;;;-1.90;99.90;;;;;;5061317;28;20209;-82
2021/12/22 09:07:11;;;;;;;20.60;9.77;;;-1.80;99.90;;;;;;5055917;28;20199;-82
2021/12/22 09:09:38;;;;;;;19.15;10.43;;;-1.80;99.90;;;;;;5055296;28;20236;-82
2021/12/22 09:12:06;;;;;;;24.67;11.25;;;-1.70;99.90;;;;;;5057566;28;20209;-83
2021/12/22 09:14:33;;;;;;;15.63;10.00;;;-1.70;99.90;;;;;;5057088;28;20288;-84
2021/12/22 09:17:00;;;;;;;16.05;9.43;;;-1.60;99.90;;;;;;5044790;28;20198;-82
2021/12/22 09:19:26;;;;;;;21.30;11.02;;;-1.50;99.90;;;;;;5043677;28;20202;-83
2021/12/22 09:21:55;;;;;;;22.05;10.30;;;-1.40;99.90;;;;;;5049912;28;20248;-83
2021/12/22 09:24:21;;;;;;;15.57;9.02;;;-1.30;99.90;;;;;;5044064;28;20332;-81
2021/12/22 09:26:48;;;;;;;17.25;8.60;;;-1.20;99.90;;;;;;5042506;28;20199;-80
2021/12/22 09:29:15;;;;;;;13.43;9.13;;;-1.00;99.90;;;;;;5040238;28;20217;-80
2021/12/22 09:31:42;;;;;;;21.48;10.30;;;-0.90;99.90;;;;;;5046508;28;20269;-79
2021/12/22 09:34:09;;;;;;;19.35;10.63;;;-0.70;99.90;;;;;;5036848;28;20645;-80
2021/12/22 09:36:36;;;;;;;20.05;9.75;;;-0.70;99.90;;;;;;5034467;28;20221;-79
2021/12/22 09:39:04;;;;;;;19.08;9.20;;;-0.80;99.90;;;;;;5037341;28;20205;-81
2021/12/22 09:41:32;;;;;;;16.42;9.40;;;-0.70;99.90;;;;;;5038014;28;20745;-83
2021/12/22 09:44:00;;;;;;;13.18;9.18;;;-0.60;99.90;;;;;;5043036;28;20281;-80
2021/12/22 09:46:27;;;;;;;16.45;9.55;;;-0.60;99.90;;;;;;5051388;28;20213;-81
2021/12/22 09:49:00;;;;;;;18.15;9.75;;;-0.60;99.90;;;;;;5052060;28;20290;-82
2021/12/22 09:54:14;;;;;;;12.75;10.23;;;-0.60;99.90;;;;;;5027371;28;20284;-80
2021/12/22 09:56:43;;;;;;;16.95;10.25;;;-0.60;99.90;;;;;;5038431;28;20203;-83
2021/12/22 09:59:11;;;;;;;14.32;10.10;;;-0.70;99.90;;;;;;5041866;28;20211;-81
2021/12/22 10:01:37;;;;;;;13.90;10.20;;;-0.60;99.90;;;;;;5043410;28;20222;-78
2021/12/22 10:04:05;;;;;;;15.18;8.93;;;-0.50;99.90;;;;;;5040857;28;20244;-81
2021/12/22 10:06:31;;;;;;;15.95;9.07;;;-0.50;99.90;;;;;;5040424;28;20203;-79
2021/12/22 10:09:02;;;;;;;17.70;10.52;;;-0.50;99.90;;;;;;5039481;28;20289;-79
2021/12/22 10:11:32;;;;;;;13.48;9.57;;;-0.40;99.90;;;;;;5039328;28;20204;-79
2021/12/22 10:13:59;;;;;;;15.82;9.27;;;-0.40;99.90;;;;;;5039785;28;20224;-79
2021/12/22 10:16:29;;;;;;;16.35;9.07;;;-0.30;99.90;;;;;;5040161;28;20216;-80
2021/12/22 10:19:07;;;;;;;16.00;10.20;;;-0.20;99.90;;;;;;5043566;28;20201;-80
2021/12/22 10:21:37;;;;;;;15.00;9.75;;;-0.10;99.90;;;;;;5044544;28;20251;-80
2021/12/22 10:24:07;;;;;;;11.68;8.98;;;0.00;99.90;;;;;;5041252;28;20875;-80
2021/12/22 10:26:35;;;;;;;14.80;9.15;;;0.10;99.90;;;;;;5041969;28;20203;-81
2021/12/22 10:29:05;;;;;;;14.38;9.07;;;0.20;99.90;;;;;;5041014;28;20301;-80
2021/12/22 10:31:37;;;;;;;16.05;11.13;;;0.30;99.90;;;;;;5039419;28;20200;-79
2021/12/22 10:34:08;;;;;;;14.05;9.10;;;0.40;99.90;;;;;;5040399;28;20229;-80
2021/12/22 10:36:45;;;;;;;15.32;9.70;;;0.50;99.90;;;;;;5048012;28;20284;-80
2021/12/22 10:39:21;;;;;;;14.55;9.25;;;0.60;99.90;;;;;;5053191;28;20203;-80
2021/12/22 10:41:50;;;;;;;12.75;9.27;;;0.70;99.90;;;;;;5047990;28;20217;-80
2021/12/22 10:44:17;;;;;;;10.75;7.35;;;0.90;99.90;;;;;;5046288;28;20228;-81
2021/12/22 10:46:44;;;;;;;12.30;8.10;;;1.10;99.90;;;;;;5037977;28;20208;-79
2021/12/22 10:49:15;;;;;;;15.13;8.55;;;1.30;99.90;;;;;;5028191;28;20745;-81
2021/12/22 10:51:43;;;;;;;13.10;9.60;;;1.30;99.90;;;;;;5021630;28;20223;-79
2021/12/22 10:54:12;;;;;;;12.60;9.18;;;1.40;99.90;;;;;;5034966;28;20229;-82
2021/12/22 10:56:42;;;;;;;14.60;9.55;;;1.50;99.90;;;;;;5032302;28;20210;-80
2021/12/22 10:59:12;;;;;;;10.55;8.27;;;1.50;99.90;;;;;;5038098;28;20210;-81
2021/12/22 11:01:40;;;;;;;12.50;9.05;;;1.60;99.90;;;;;;5034990;28;20225;-79
2021/12/22 11:04:17;;;;;;;11.68;8.55;;;1.70;99.90;;;;;;5037451;28;20242;-79
2021/12/22 11:06:43;;;;;;;14.47;9.60;;;1.90;99.90;;;;;;5034434;28;20208;-79
2021/12/22 11:09:14;;;;;;;12.77;8.88;;;2.00;99.90;;;;;;5030541;28;20490;-78
2021/12/22 11:11:44;;;;;;;14.10;8.30;;;2.20;99.90;;;;;;5012650;28;20199;-79
2021/12/22 11:14:16;;;;;;;12.55;8.77;;;2.30;99.90;;;;;;5024106;28;20472;-77
2021/12/22 11:16:58;;;;;;;14.10;9.03;;;2.50;99.90;;;;;;5031344;28;20205;-79
2021/12/22 11:19:27;;;;;;;9.80;6.67;;;2.70;99.90;;;;;;5027094;28;20566;-77
2021/12/22 11:22:05;;;;;;;12.88;8.30;;;2.90;99.90;;;;;;5026339;28;20499;-79
2021/12/22 11:24:35;;;;;;;7.57;6.22;;;3.00;99.90;;;;;;5025761;28;20649;-79
2021/12/22 11:27:02;;;;;;;7.57;6.77;;;3.40;99.90;;;;;;5020763;28;20203;-78
2021/12/22 11:29:32;;;;;;;9.50;7.03;;;4.40;99.90;;;;;;5025483;28;20842;-78
2021/12/22 11:32:02;;;;;;;9.47;6.93;;;5.80;99.90;;;;;;5024605;28;20453;-78
2021/12/22 11:34:34;;;;;;;8.03;6.30;;;6.10;99.90;;;;;;5031797;28;20462;-78
2021/12/22 11:37:02;;;;;;;6.27;5.40;;;6.90;99.90;;;;;;5019483;28;20518;-77
2021/12/22 11:39:30;;;;;;;7.70;5.50;;;6.60;99.90;;;;;;5012322;28;20452;-77
2021/12/22 11:41:59;;;;;;;8.17;5.60;;;6.80;99.90;;;;;;5022157;28;21042;-77
2021/12/22 11:44:27;;;;;;;8.60;5.90;;;6.30;99.90;;;;;;5030598;28;20474;-77
2021/12/22 11:46:57;;;;;;;6.17;4.67;;;6.60;99.90;;;;;;5031126;28;20458;-78
2021/12/22 11:49:27;;;;;;;7.60;5.20;;;6.90;99.90;;;;;;5033282;28;21033;-78
2021/12/22 11:51:54;;;;;;;8.67;4.60;;;6.60;99.90;;;;;;5026227;28;20449;-78
2021/12/22 11:54:27;;;;;;;8.20;5.20;;;6.80;99.90;;;;;;5017178;28;20456;-78
2021/12/22 11:56:56;;;;;;;11.63;5.53;;;6.10;99.90;;;;;;5021251;28;20510;-78
2021/12/22 11:59:28;;;;;;;6.40;4.80;;;6.40;99.90;;;;;;5038357;28;20447;-78
2021/12/22 12:02:18;;;;;;;10.00;5.00;;;7.10;99.90;;;;;;5031816;28;20491;-79
2021/12/22 12:04:46;;;;;;;10.80;5.20;;;8.10;99.90;;;;;;5027099;28;20977;-79
2021/12/22 12:07:39;;;;;;;5.83;4.17;;;8.10;99.90;;;;;;5028699;28;20452;-80
2021/12/22 12:10:42;;;;;;;8.70;4.97;;;8.90;99.90;;;;;;5017802;28;20987;-78
2021/12/22 12:13:19;;;;;;;6.90;4.23;;;9.20;99.90;;;;;;5028847;28;20477;-79
2021/12/22 12:22:34;;;;;;;6.80;5.10;;;7.00;99.90;;;;;;5027437;28;20494;-79
2021/12/22 12:25:04;;;;;;;8.83;4.20;;;6.70;99.90;;;;;;5034470;28;20543;-80
2021/12/22 12:27:44;;;;;;;7.87;4.40;;;6.60;99.90;;;;;;5028529;28;20456;-80
2021/12/22 12:30:41;;;;;;;7.43;4.10;;;6.40;99.90;;;;;;5033454;28;20479;-79
2021/12/22 12:33:22;;;;;;;6.17;4.57;;;6.30;99.90;;;;;;5030838;28;21001;-82
2021/12/22 12:36:04;;;;;;;6.70;4.57;;;6.10;99.90;;;;;;5034019;28;20834;-79
2021/12/22 12:38:48;;;;;;;5.87;4.57;;;6.00;99.90;;;;;;5028018;28;20503;-80
2021/12/22 12:41:25;;;;;;;7.00;5.10;;;6.00;99.90;;;;;;5036672;28;20498;-81
2021/12/22 12:44:04;;;;;;;7.93;5.00;;;6.00;99.90;;;;;;5031998;28;21023;-79
2021/12/22 12:46:37;;;;;;;6.60;5.50;;;5.60;99.90;;;;;;5034582;28;20471;-80
2021/12/22 12:49:43;;;;;;;6.40;4.63;;;5.70;99.90;;;;;;5034216;28;20461;-79
2021/12/22 12:52:27;;;;;;;9.00;5.40;;;5.60;99.90;;;;;;5019643;28;20465;-80
2021/12/22 12:55:14;;;;;;;6.57;4.93;;;5.70;99.90;;;;;;5033455;28;20961;-79
2021/12/22 12:57:40;;;;;;;10.27;5.30;;;5.50;99.90;;;;;;5034083;28;20451;-81
2021/12/22 13:00:22;;;;;;;7.90;5.50;;;5.50;99.90;;;;;;5035335;28;20450;-77
2021/12/22 13:03:09;;;;;;;8.53;5.60;;;5.30;99.90;;;;;;5037007;28;20523;-79